createdAt,value
2022-12-18T00:00:48.909Z,17.57
2022-12-18T00:03:16.084Z,17.90
2022-12-18T00:05:53.161Z,17.57
2022-12-18T00:08:20.121Z,18.00
2022-12-18T00:10:47.084Z,18.37
2022-12-18T00:13:13.856Z,18.43
2022-12-18T00:15:40.658Z,17.13
2022-12-18T00:18:07.342Z,16.87
2022-12-18T00:20:39.056Z,18.30
2022-12-18T00:23:06.032Z,19.43
2022-12-18T00:25:36.606Z,20.03
2022-12-18T00:28:04.870Z,20.03
2022-12-18T00:30:31.396Z,18.47
2022-12-18T00:32:58.274Z,19.70
2022-12-18T00:35:24.663Z,20.83
2022-12-18T00:37:51.063Z,20.33
2022-12-18T00:40:17.494Z,19.97
2022-12-18T00:42:58.954Z,19.77
2022-12-18T00:45:26.382Z,18.53
2022-12-18T00:47:52.966Z,17.00
2022-12-18T00:50:19.757Z,21.13
2022-12-18T00:52:46.144Z,20.70
2022-12-18T00:55:12.719Z,19.10
2022-12-18T00:57:39.181Z,22.90
2022-12-18T01:00:07.725Z,21.03
2022-12-18T01:02:34.214Z,21.80
2022-12-18T01:05:00.734Z,22.70
2022-12-18T01:07:27.111Z,21.23
2022-12-18T01:09:53.472Z,21.10
2022-12-18T01:12:19.894Z,19.13
2022-12-18T01:14:46.350Z,20.57
2022-12-18T01:17:12.751Z,23.00
2022-12-18T01:19:39.219Z,20.77
2022-12-18T01:22:05.588Z,22.67
2022-12-18T01:24:31.998Z,22.50
2022-12-18T01:26:58.875Z,19.67
2022-12-18T01:29:25.240Z,20.53
2022-12-18T01:31:52.504Z,20.10
2022-12-18T01:34:18.910Z,21.90
2022-12-18T01:36:45.298Z,20.67
2022-12-18T01:39:13.735Z,18.83
2022-12-18T01:41:58.811Z,23.37
2022-12-18T01:44:53.328Z,21.93
2022-12-18T01:47:43.099Z,19.53
2022-12-18T01:50:19.941Z,19.60
2022-12-18T01:52:49.985Z,21.97
2022-12-18T01:55:19.479Z,22.50
2022-12-18T01:57:47.212Z,19.73
2022-12-18T02:00:17.432Z,21.73
2022-12-18T02:02:44.989Z,19.70
2022-12-18T02:05:12.909Z,19.57
2022-12-18T02:08:04.638Z,20.77
2022-12-18T02:10:34.099Z,21.67
2022-12-18T02:13:18.654Z,19.83
2022-12-18T02:15:49.921Z,21.13
2022-12-18T02:18:22.421Z,19.53
2022-12-18T02:21:00.453Z,20.73
2022-12-18T02:24:13.308Z,20.47
2022-12-18T02:26:47.946Z,19.53
2022-12-18T02:29:17.949Z,19.80
2022-12-18T02:31:54.849Z,19.63
2022-12-18T02:34:23.670Z,21.80
2022-12-18T02:36:50.928Z,19.43
2022-12-18T02:39:18.602Z,19.67
2022-12-18T02:41:45.182Z,18.87
2022-12-18T02:44:13.520Z,21.43
2022-12-18T02:46:49.819Z,20.00
2022-12-18T02:49:22.330Z,21.17
2022-12-18T02:51:55.968Z,21.33
2022-12-18T02:54:51.618Z,19.27
2022-12-18T02:57:36.766Z,20.17
2022-12-18T03:00:18.783Z,18.90
2022-12-18T03:02:57.426Z,22.20
2022-12-18T03:05:29.217Z,18.77
2022-12-18T03:08:09.361Z,19.03
2022-12-18T03:10:40.894Z,19.30
2022-12-18T03:13:11.675Z,17.53
2022-12-18T03:15:49.840Z,19.17
2022-12-18T03:18:19.743Z,19.73
2022-12-18T03:20:48.181Z,16.80
2022-12-18T03:23:24.329Z,17.27
2022-12-18T03:25:55.127Z,20.27
2022-12-18T03:28:23.017Z,20.97
2022-12-18T03:30:53.319Z,18.83
2022-12-18T03:33:28.844Z,19.77
2022-12-18T03:35:55.386Z,18.60
2022-12-18T03:38:21.822Z,18.40
2022-12-18T03:40:48.134Z,20.00
2022-12-18T03:43:41.026Z,20.23
2022-12-18T03:46:21.718Z,17.80
2022-12-18T03:49:12.370Z,19.83
2022-12-18T03:51:52.770Z,17.77
2022-12-18T03:54:19.862Z,17.53
2022-12-18T03:56:49.701Z,19.20
2022-12-18T03:59:17.572Z,19.33
2022-12-18T04:01:47.744Z,24.73
2022-12-18T04:04:16.408Z,19.83
2022-12-18T04:06:44.312Z,18.60
2022-12-18T04:09:10.850Z,21.03
2022-12-18T04:11:37.256Z,20.87
2022-12-18T04:14:07.060Z,18.70
2022-12-18T04:16:33.793Z,19.63
2022-12-18T04:19:00.205Z,21.47
2022-12-18T04:21:26.815Z,20.00
2022-12-18T04:23:53.302Z,20.23
2022-12-18T04:26:19.939Z,21.53
2022-12-18T04:28:46.644Z,21.90
2022-12-18T04:31:13.181Z,18.43
2022-12-18T04:33:40.062Z,19.83
2022-12-18T04:36:07.162Z,18.77
2022-12-18T04:38:33.751Z,19.57
2022-12-18T04:41:00.154Z,24.10
2022-12-18T04:43:26.614Z,21.40
2022-12-18T04:45:53.046Z,20.30
2022-12-18T04:48:21.081Z,22.63
2022-12-18T04:50:48.020Z,21.57
2022-12-18T04:53:14.390Z,23.40
2022-12-18T04:55:40.797Z,24.67
2022-12-18T04:58:07.231Z,21.23
2022-12-18T05:00:33.711Z,20.47
2022-12-18T05:03:02.571Z,22.37
2022-12-18T05:05:29.284Z,23.90
2022-12-18T05:07:55.757Z,22.00
2022-12-18T05:10:22.257Z,21.57
2022-12-18T05:13:01.195Z,20.47
2022-12-18T05:15:31.935Z,20.27
2022-12-18T05:17:59.195Z,22.20
2022-12-18T05:20:26.526Z,18.57
2022-12-18T05:22:54.937Z,18.80
2022-12-18T05:25:21.751Z,20.07
2022-12-18T05:27:48.446Z,18.97
2022-12-18T05:30:15.262Z,19.67
2022-12-18T05:32:42.033Z,19.93
2022-12-18T05:35:10.397Z,18.83
2022-12-18T05:37:42.543Z,19.60
2022-12-18T05:40:10.214Z,22.67
2022-12-18T05:42:36.630Z,18.07
2022-12-18T05:45:03.283Z,19.50
2022-12-18T05:47:29.814Z,21.23
2022-12-18T05:49:56.418Z,17.70
2022-12-18T05:52:22.833Z,20.27
2022-12-18T05:54:49.262Z,20.00
2022-12-18T05:57:15.685Z,20.90
2022-12-18T05:59:42.088Z,22.30
2022-12-18T06:02:08.782Z,20.77
2022-12-18T06:04:35.439Z,20.27
2022-12-18T06:07:04.734Z,18.73
2022-12-18T06:09:31.168Z,18.80
2022-12-18T06:11:57.564Z,20.80
2022-12-18T06:14:23.936Z,22.60
2022-12-18T06:16:52.336Z,17.90
2022-12-18T06:19:18.868Z,18.80
2022-12-18T06:21:45.492Z,21.70
2022-12-18T06:24:12.008Z,20.43
2022-12-18T06:26:39.885Z,21.67
2022-12-18T06:29:06.835Z,22.67
2022-12-18T06:31:33.467Z,21.20
2022-12-18T06:33:59.921Z,22.83
2022-12-18T06:36:26.996Z,22.83
2022-12-18T06:38:53.423Z,22.77
2022-12-18T06:41:21.298Z,21.73
2022-12-18T06:43:47.829Z,19.97
2022-12-18T06:46:14.546Z,23.23
2022-12-18T06:48:41.147Z,20.33
2022-12-18T06:51:07.659Z,22.33
2022-12-18T06:53:35.272Z,21.77
2022-12-18T06:56:08.013Z,22.30
2022-12-18T06:58:36.497Z,23.50
2022-12-18T07:01:04.892Z,22.07
2022-12-18T07:03:31.559Z,24.10
2022-12-18T07:05:57.996Z,22.63
2022-12-18T07:08:24.429Z,24.47
2022-12-18T07:10:55.958Z,23.30
2022-12-18T07:13:22.860Z,25.73
2022-12-18T07:15:49.305Z,24.33
2022-12-18T07:18:15.702Z,23.27
2022-12-18T07:20:42.130Z,23.90
2022-12-18T07:23:08.521Z,26.87
2022-12-18T07:25:38.350Z,24.50
2022-12-18T07:28:05.124Z,25.53
2022-12-18T07:30:31.530Z,23.10
2022-12-18T07:32:57.997Z,25.07
2022-12-18T07:35:25.305Z,26.73
2022-12-18T07:37:52.120Z,25.50
2022-12-18T07:40:18.598Z,23.40
2022-12-18T07:42:45.356Z,26.87
2022-12-18T07:45:11.839Z,26.23
2022-12-18T07:47:38.443Z,25.80
2022-12-18T07:50:05.664Z,27.50
2022-12-18T07:52:32.076Z,28.47
2022-12-18T07:54:59.646Z,24.73
2022-12-18T08:00:13.263Z,22.40
2022-12-18T08:02:39.824Z,21.83
2022-12-18T08:05:06.519Z,21.83
2022-12-18T08:07:33.561Z,26.00
2022-12-18T08:10:00.056Z,24.90
2022-12-18T08:12:26.469Z,22.50
2022-12-18T08:14:52.908Z,27.43
2022-12-18T08:17:21.072Z,23.90
2022-12-18T08:19:47.466Z,26.90
2022-12-18T08:22:13.846Z,26.67
2022-12-18T08:24:40.262Z,24.97
2022-12-18T08:27:29.002Z,32.60
2022-12-18T08:29:53.019Z,27.37
2022-12-18T08:32:19.494Z,30.70
2022-12-18T08:34:45.937Z,28.50
2022-12-18T08:37:12.334Z,27.73
2022-12-18T08:39:38.746Z,26.73
2022-12-18T08:42:23.800Z,28.83
2022-12-18T08:44:50.210Z,26.33
2022-12-18T08:47:16.588Z,30.83
2022-12-18T08:49:43.254Z,26.07
2022-12-18T08:52:10.386Z,27.30
2022-12-18T08:54:36.786Z,28.10
2022-12-18T08:57:03.357Z,28.47
2022-12-18T08:59:29.724Z,27.93
2022-12-18T09:01:56.436Z,29.43
2022-12-18T09:04:23.286Z,30.67
2022-12-18T09:06:50.497Z,29.53
2022-12-18T09:09:16.992Z,31.50
2022-12-18T09:11:43.466Z,30.30
2022-12-18T09:14:10.385Z,32.23
2022-12-18T09:16:36.944Z,30.93
2022-12-18T09:19:04.988Z,29.37
2022-12-18T09:21:35.132Z,27.60
2022-12-18T09:24:04.119Z,30.93
2022-12-18T09:26:31.790Z,27.43
2022-12-18T09:28:58.272Z,31.53
2022-12-18T09:31:25.638Z,28.30
2022-12-18T09:33:52.236Z,31.00
2022-12-18T09:36:19.129Z,34.30
2022-12-18T09:38:45.549Z,30.37
2022-12-18T09:41:30.296Z,31.07
2022-12-18T09:44:19.990Z,27.70
2022-12-18T09:47:19.218Z,31.70
2022-12-18T09:49:47.343Z,30.17
2022-12-18T09:52:20.447Z,31.97
2022-12-18T09:54:55.041Z,29.80
2022-12-18T09:57:23.246Z,31.33
2022-12-18T09:59:56.456Z,31.43
2022-12-18T10:02:25.378Z,32.93
2022-12-18T10:05:17.903Z,30.67
2022-12-18T10:08:14.743Z,30.87
2022-12-18T10:10:54.084Z,31.33
2022-12-18T10:13:38.931Z,35.87
2022-12-18T10:16:20.760Z,33.43
2022-12-18T10:18:50.187Z,36.53
2022-12-18T10:21:27.746Z,34.27
2022-12-18T10:24:26.633Z,28.73
2022-12-18T10:26:54.121Z,33.20
2022-12-18T10:29:20.656Z,31.27
2022-12-18T10:31:47.096Z,38.93
2022-12-18T10:34:13.968Z,33.10
2022-12-18T10:36:40.487Z,34.70
2022-12-18T10:39:24.077Z,33.27
2022-12-18T10:41:50.497Z,32.00
2022-12-18T10:44:19.585Z,31.10
2022-12-18T10:46:51.106Z,29.07
2022-12-18T10:49:24.268Z,38.23
2022-12-18T10:51:51.035Z,33.90
2022-12-18T10:54:23.778Z,33.73
2022-12-18T10:56:50.542Z,32.53
2022-12-18T10:59:18.468Z,30.90
2022-12-18T11:01:58.780Z,31.03
2022-12-18T11:04:30.856Z,34.00
2022-12-18T11:07:00.402Z,29.90
2022-12-18T11:09:30.662Z,33.80
2022-12-18T11:12:00.104Z,33.70
2022-12-18T11:14:30.367Z,32.33
2022-12-18T11:17:24.504Z,31.47
2022-12-18T11:19:43.891Z,33.27
2022-12-18T11:22:27.460Z,32.80
2022-12-18T11:27:53.929Z,33.47
2022-12-18T11:30:29.619Z,32.63
2022-12-18T11:33:05.174Z,34.07
2022-12-18T11:35:51.169Z,32.17
2022-12-18T11:38:30.743Z,28.90
2022-12-18T11:41:01.291Z,33.87
2022-12-18T11:43:34.857Z,32.93
2022-12-18T11:46:14.766Z,33.93
2022-12-18T11:48:53.506Z,32.73
2022-12-18T11:51:27.437Z,34.40
2022-12-18T11:53:53.995Z,30.87
2022-12-18T11:56:32.154Z,33.50
2022-12-18T11:59:19.747Z,32.10
2022-12-18T12:02:15.519Z,35.03
2022-12-18T12:05:10.248Z,33.10
2022-12-18T12:07:36.618Z,33.53
2022-12-18T12:10:26.279Z,33.87
2022-12-18T12:13:01.583Z,35.27
2022-12-18T12:15:37.220Z,32.80
2022-12-18T12:18:44.306Z,31.37
2022-12-18T12:21:32.533Z,37.50
2022-12-18T12:24:27.043Z,36.97
2022-12-18T12:27:03.297Z,39.13
2022-12-18T12:29:43.021Z,34.77
2022-12-18T12:32:18.454Z,38.60
2022-12-18T12:35:17.209Z,39.97
2022-12-18T12:38:10.263Z,44.53
2022-12-18T12:40:55.357Z,43.13
2022-12-18T12:43:51.112Z,44.47
2022-12-18T12:46:20.397Z,83.37
2022-12-18T12:48:50.080Z,52.77
2022-12-18T12:51:41.751Z,46.80
2022-12-18T12:54:16.351Z,41.13
2022-12-18T12:56:48.922Z,44.13
2022-12-18T12:59:28.951Z,37.13
2022-12-18T13:02:00.572Z,35.07
2022-12-18T13:04:47.048Z,37.80
2022-12-18T13:07:34.971Z,38.07
2022-12-18T13:10:23.793Z,38.07
2022-12-18T13:12:56.835Z,38.70
2022-12-18T13:15:48.279Z,37.33
2022-12-18T13:18:16.153Z,35.77
2022-12-18T13:20:53.115Z,37.47
2022-12-18T13:23:25.887Z,38.30
2022-12-18T13:25:58.411Z,34.70
2022-12-18T13:28:47.839Z,50.93
2022-12-18T13:31:40.384Z,35.20
2022-12-18T13:37:32.363Z,40.33
2022-12-18T13:39:59.134Z,41.97
2022-12-18T13:42:57.794Z,38.67
2022-12-18T13:45:46.147Z,39.57
2022-12-18T13:48:21.904Z,41.00
2022-12-18T13:50:59.172Z,46.10
2022-12-18T13:53:29.357Z,39.90
2022-12-18T13:55:56.069Z,36.33
2022-12-18T13:58:23.531Z,36.57
2022-12-18T14:00:50.056Z,40.70
2022-12-18T14:03:29.353Z,36.00
2022-12-18T14:06:16.124Z,35.23
2022-12-18T14:08:44.542Z,36.47
2022-12-18T14:11:21.802Z,36.90
2022-12-18T14:13:49.318Z,38.53
2022-12-18T14:16:17.995Z,36.33
2022-12-18T14:18:58.749Z,35.83
2022-12-18T14:21:33.381Z,34.50
2022-12-18T14:24:20.591Z,35.20
2022-12-18T14:26:50.425Z,89.03
2022-12-18T14:29:23.469Z,43.20
2022-12-18T14:32:17.069Z,46.23
2022-12-18T14:34:52.617Z,44.63
2022-12-18T14:37:23.240Z,43.27
2022-12-18T14:40:10.447Z,40.30
2022-12-18T14:42:38.192Z,39.77
2022-12-18T14:45:43.318Z,36.47
2022-12-18T14:48:22.851Z,40.07
2022-12-18T14:51:19.244Z,40.37
2022-12-18T14:53:54.162Z,38.20
2022-12-18T14:56:30.289Z,38.07
2022-12-18T14:59:01.423Z,35.53
2022-12-18T15:01:30.957Z,42.27
2022-12-18T15:03:58.809Z,35.53
2022-12-18T15:06:37.042Z,50.83
2022-12-18T15:09:23.507Z,40.40
2022-12-18T15:11:51.321Z,36.13
2022-12-18T15:14:30.048Z,55.47
2022-12-18T15:16:57.426Z,44.77
2022-12-18T15:19:48.455Z,43.70
2022-12-18T15:22:26.425Z,42.93
2022-12-18T15:24:52.964Z,38.43
2022-12-18T15:27:28.530Z,37.77
2022-12-18T15:30:21.194Z,38.67
2022-12-18T15:32:48.230Z,35.17
2022-12-18T15:35:20.741Z,36.63
2022-12-18T15:37:47.584Z,34.50
2022-12-18T15:40:21.959Z,46.77
2022-12-18T15:43:07.927Z,47.70
2022-12-18T15:45:34.396Z,39.03
2022-12-18T15:48:00.938Z,41.77
2022-12-18T15:50:27.378Z,40.97
2022-12-18T15:52:56.340Z,44.67
2022-12-18T15:55:42.855Z,42.40
2022-12-18T15:58:10.700Z,41.23
2022-12-18T16:00:39.413Z,50.70
2022-12-18T16:03:06.240Z,42.73
2022-12-18T16:05:33.299Z,36.37
2022-12-18T16:07:59.770Z,41.83
2022-12-18T16:10:27.062Z,36.70
2022-12-18T16:12:53.551Z,42.35
2022-12-18T16:15:24.480Z,38.23
2022-12-18T16:17:51.293Z,38.20
2022-12-18T16:20:19.817Z,35.23
2022-12-18T16:22:46.962Z,33.33
2022-12-18T16:25:28.422Z,36.27
2022-12-18T16:27:58.803Z,36.83
2022-12-18T16:30:28.709Z,37.33
2022-12-18T16:33:02.660Z,37.37
2022-12-18T16:35:29.173Z,36.93
2022-12-18T16:37:55.543Z,38.57
2022-12-18T16:40:22.004Z,38.30
2022-12-18T16:42:48.471Z,35.60
2022-12-18T16:45:18.563Z,35.93
2022-12-18T16:47:45.587Z,35.60
2022-12-18T16:50:12.284Z,38.87
2022-12-18T16:52:39.834Z,34.60
2022-12-18T16:55:06.692Z,34.47
2022-12-18T16:57:33.277Z,36.50
2022-12-18T17:00:04.729Z,35.40
2022-12-18T17:02:32.087Z,31.30
2022-12-18T17:04:59.297Z,34.67
2022-12-18T17:07:26.964Z,35.80
2022-12-18T17:09:54.111Z,33.83
2022-12-18T17:12:21.004Z,38.53
2022-12-18T17:14:47.510Z,39.43
2022-12-18T17:17:22.543Z,35.67
2022-12-18T17:19:50.072Z,35.83
2022-12-18T17:22:16.466Z,38.10
2022-12-18T17:24:42.890Z,35.73
2022-12-18T17:27:09.316Z,42.00
2022-12-18T17:29:35.925Z,39.93
2022-12-18T17:32:02.372Z,36.77
2022-12-18T17:34:29.032Z,36.83
2022-12-18T17:36:56.640Z,38.33
2022-12-18T17:39:23.096Z,39.67
2022-12-18T17:41:49.880Z,35.73
2022-12-18T17:44:17.043Z,33.80
2022-12-18T17:46:45.103Z,38.40
2022-12-18T17:49:11.983Z,36.43
2022-12-18T17:51:38.439Z,36.37
2022-12-18T17:54:05.394Z,37.27
2022-12-18T17:56:32.782Z,35.90
2022-12-18T17:58:59.227Z,36.20
2022-12-18T18:01:26.063Z,35.33
2022-12-18T18:03:54.161Z,39.93
2022-12-18T18:06:20.798Z,36.40
2022-12-18T18:08:47.322Z,35.57
2022-12-18T18:11:35.119Z,36.23
2022-12-18T18:14:04.103Z,36.73
2022-12-18T18:16:43.746Z,33.17
2022-12-18T18:19:16.361Z,36.97
2022-12-18T18:21:44.714Z,37.77
2022-12-18T18:24:13.403Z,33.83
2022-12-18T18:26:41.472Z,34.53
2022-12-18T18:29:08.557Z,37.87
2022-12-18T18:31:40.953Z,34.67
2022-12-18T18:34:08.463Z,34.07
2022-12-18T18:36:34.890Z,36.87
2022-12-18T18:39:02.152Z,36.87
2022-12-18T18:41:29.940Z,36.33
2022-12-18T18:43:57.754Z,37.90
2022-12-18T18:46:24.914Z,32.20
2022-12-18T18:48:51.570Z,36.03
2022-12-18T18:51:21.074Z,32.07
2022-12-18T18:53:49.786Z,34.30
2022-12-18T18:59:04.819Z,34.80
2022-12-18T19:01:31.426Z,31.97
2022-12-18T19:03:57.923Z,32.87
2022-12-18T19:06:26.606Z,32.10
2022-12-18T19:08:54.640Z,38.27
2022-12-18T19:11:40.727Z,33.07
2022-12-18T19:14:09.654Z,33.13
2022-12-18T19:16:36.605Z,37.50
2022-12-18T19:19:03.533Z,32.97
2022-12-18T19:21:31.383Z,34.97
2022-12-18T19:24:01.459Z,34.20
2022-12-18T19:26:28.735Z,33.50
2022-12-18T19:29:00.975Z,35.00
2022-12-18T19:31:33.407Z,34.10
2022-12-18T19:34:01.675Z,33.13
2022-12-18T19:36:30.194Z,34.03
2022-12-18T19:38:58.969Z,34.40
2022-12-18T19:41:26.121Z,40.43
2022-12-18T19:43:55.473Z,38.87
2022-12-18T19:46:23.004Z,40.47
2022-12-18T19:48:50.181Z,40.37
2022-12-18T19:51:17.626Z,43.60
2022-12-18T19:53:44.526Z,37.67
2022-12-18T19:56:16.841Z,42.33
2022-12-18T19:58:44.438Z,42.13
2022-12-18T20:01:16.618Z,41.10
2022-12-18T20:03:44.568Z,43.37
2022-12-18T20:06:30.414Z,42.30
2022-12-18T20:09:00.438Z,39.87
2022-12-18T20:11:31.290Z,33.97
2022-12-18T20:14:01.109Z,36.37
2022-12-18T20:16:27.638Z,29.77
2022-12-18T20:18:54.217Z,29.47
2022-12-18T20:21:21.131Z,34.53
2022-12-18T20:23:47.565Z,34.27
2022-12-18T20:26:14.015Z,32.70
2022-12-18T20:28:40.845Z,33.73
2022-12-18T20:31:13.363Z,32.43
2022-12-18T20:33:41.210Z,32.33
2022-12-18T20:36:11.111Z,33.67
2022-12-18T20:38:39.049Z,31.07
2022-12-18T20:41:19.261Z,28.10
2022-12-18T20:43:45.746Z,30.57
2022-12-18T20:46:13.636Z,30.60
2022-12-18T20:48:40.839Z,30.80
2022-12-18T20:51:15.825Z,32.83
2022-12-18T20:53:42.986Z,33.07
2022-12-18T20:56:21.825Z,31.27
2022-12-18T20:58:49.719Z,31.90
2022-12-18T21:01:20.937Z,32.80
2022-12-18T21:03:48.109Z,33.13
2022-12-18T21:06:16.950Z,33.70
2022-12-18T21:08:43.696Z,30.37
2022-12-18T21:11:42.510Z,30.97
2022-12-18T21:14:20.762Z,31.70
2022-12-18T21:16:47.714Z,31.67
2022-12-18T21:19:17.733Z,32.70
2022-12-18T21:21:44.626Z,33.07
2022-12-18T21:24:11.785Z,35.00
2022-12-18T21:26:44.909Z,32.77
2022-12-18T21:29:14.710Z,31.23
2022-12-18T21:31:41.630Z,32.87
2022-12-18T21:34:08.547Z,34.17
2022-12-18T21:36:35.085Z,30.70
2022-12-18T21:39:01.886Z,29.80
2022-12-18T21:41:47.696Z,31.07
2022-12-18T21:44:17.046Z,27.90
2022-12-18T21:46:48.965Z,30.47
2022-12-18T21:49:22.957Z,29.47
2022-12-18T21:51:51.923Z,30.33
2022-12-18T21:54:18.718Z,32.30
2022-12-18T21:56:45.088Z,28.53
2022-12-18T21:59:14.205Z,31.07
2022-12-18T22:01:40.741Z,34.70
2022-12-18T22:04:07.328Z,32.93
2022-12-18T22:06:33.745Z,29.83
2022-12-18T22:09:00.140Z,31.73
2022-12-18T22:11:26.593Z,29.70
2022-12-18T22:13:52.961Z,28.50
2022-12-18T22:16:19.419Z,27.53
2022-12-18T22:18:45.867Z,28.37
2022-12-18T22:21:29.893Z,32.03
2022-12-18T22:24:02.074Z,30.93
2022-12-18T22:26:30.438Z,30.90
2022-12-18T22:29:17.236Z,31.93
2022-12-18T22:31:43.929Z,29.03
2022-12-18T22:34:10.420Z,28.50
2022-12-18T22:36:41.580Z,30.80
2022-12-18T22:39:11.618Z,28.63
2022-12-18T22:41:37.987Z,30.07
2022-12-18T22:44:04.407Z,32.53
2022-12-18T22:46:33.414Z,28.40
2022-12-18T22:48:59.946Z,29.03
2022-12-18T22:51:26.344Z,32.97
2022-12-18T22:53:52.944Z,29.40
2022-12-18T22:56:21.550Z,32.90
2022-12-18T22:58:49.334Z,31.80
2022-12-18T23:01:22.109Z,34.67
2022-12-18T23:03:49.302Z,32.40
2022-12-18T23:06:16.252Z,32.37
2022-12-18T23:08:43.500Z,32.97
2022-12-18T23:11:10.654Z,29.50
2022-12-18T23:13:37.488Z,28.33
2022-12-18T23:16:08.362Z,28.53
2022-12-18T23:18:35.783Z,31.07
2022-12-18T23:21:06.853Z,27.93
2022-12-18T23:23:37.111Z,29.83
2022-12-18T23:26:05.773Z,31.87
2022-12-18T23:28:33.315Z,30.53
2022-12-18T23:31:14.272Z,32.20
2022-12-18T23:33:43.023Z,33.23
2022-12-18T23:36:11.186Z,34.77
2022-12-18T23:38:37.747Z,30.40
2022-12-18T23:41:13.011Z,34.53
2022-12-18T23:43:39.452Z,34.40
2022-12-18T23:46:30.864Z,32.93
2022-12-18T23:49:00.736Z,35.63
2022-12-18T23:51:27.825Z,36.73
2022-12-18T23:54:01.956Z,33.17
2022-12-18T23:56:29.355Z,32.30
2022-12-18T23:58:56.119Z,33.93
